createdAt,value
2023-04-04T00:00:39.149Z,1.90
2023-04-04T00:03:06.767Z,1.90
2023-04-04T00:05:35.610Z,2.00
2023-04-04T00:08:03.632Z,2.00
2023-04-04T00:10:30.761Z,2.00
2023-04-04T00:12:57.917Z,2.10
2023-04-04T00:15:25.045Z,2.40
2023-04-04T00:17:52.294Z,2.20
2023-04-04T00:20:19.486Z,2.40
2023-04-04T00:22:46.690Z,2.37
2023-04-04T00:25:14.457Z,2.17
2023-04-04T00:27:41.701Z,2.27
2023-04-04T00:30:09.195Z,2.30
2023-04-04T00:32:36.476Z,2.30
2023-04-04T00:35:03.908Z,2.73
2023-04-04T00:37:31.068Z,2.00
2023-04-04T00:39:58.231Z,2.20
2023-04-04T00:42:25.532Z,2.17
2023-04-04T00:44:52.915Z,2.07
2023-04-04T00:47:23.369Z,1.90
2023-04-04T00:49:51.230Z,2.03
2023-04-04T00:52:18.358Z,2.00
2023-04-04T00:54:45.544Z,2.10
2023-04-04T00:57:12.861Z,2.20
2023-04-04T00:59:40.219Z,2.13
2023-04-04T01:02:07.413Z,2.40
2023-04-04T01:04:34.694Z,2.13
2023-04-04T01:07:03.021Z,2.10
2023-04-04T01:09:30.495Z,2.10
2023-04-04T01:11:57.918Z,2.10
2023-04-04T01:14:25.366Z,2.10
2023-04-04T01:16:52.575Z,2.50
2023-04-04T01:19:25.428Z,2.60
2023-04-04T01:21:53.843Z,2.03
2023-04-04T01:24:22.533Z,2.30
2023-04-04T01:26:51.500Z,2.00
2023-04-04T01:29:18.629Z,2.30
2023-04-04T01:31:49.734Z,2.53
2023-04-04T01:34:31.981Z,2.33
2023-04-04T01:37:04.400Z,2.20
2023-04-04T01:39:40.328Z,2.30
2023-04-04T01:42:07.790Z,2.30
2023-04-04T01:44:35.722Z,2.33
2023-04-04T01:47:03.393Z,2.37
2023-04-04T01:49:30.522Z,2.40
2023-04-04T01:51:57.785Z,2.30
2023-04-04T01:54:25.943Z,2.27
2023-04-04T01:56:53.212Z,2.20
2023-04-04T01:59:20.721Z,2.43
2023-04-04T02:01:47.910Z,2.13
2023-04-04T02:04:15.211Z,2.00
2023-04-04T02:06:42.377Z,2.37
2023-04-04T02:09:09.612Z,1.90
2023-04-04T02:11:37.676Z,1.77
2023-04-04T02:14:05.207Z,2.03
2023-04-04T02:16:32.332Z,2.53
2023-04-04T02:18:59.522Z,2.10
2023-04-04T02:21:27.210Z,1.80
2023-04-04T02:23:54.659Z,2.20
2023-04-04T02:26:22.172Z,1.90
2023-04-04T02:28:49.344Z,2.00
2023-04-04T02:31:16.763Z,2.20
2023-04-04T02:33:43.962Z,1.80
2023-04-04T02:36:12.459Z,1.80
2023-04-04T02:38:39.778Z,1.57
2023-04-04T02:41:07.026Z,1.90
2023-04-04T02:43:34.340Z,2.00
2023-04-04T02:46:10.873Z,1.90
2023-04-04T02:48:45.827Z,2.03
2023-04-04T02:51:13.076Z,1.80
2023-04-04T02:53:40.206Z,1.83
2023-04-04T02:56:07.677Z,2.00
2023-04-04T02:58:34.950Z,2.10
2023-04-04T03:01:02.202Z,1.97
2023-04-04T03:03:29.730Z,2.10
2023-04-04T03:05:57.256Z,2.07
2023-04-04T03:08:24.384Z,1.90
2023-04-04T03:10:51.544Z,2.00
2023-04-04T03:13:18.673Z,2.10
2023-04-04T03:15:47.292Z,2.00
2023-04-04T03:18:14.719Z,2.00
2023-04-04T03:20:42.274Z,2.10
2023-04-04T03:23:09.536Z,1.90
2023-04-04T03:25:36.967Z,1.93
2023-04-04T03:28:11.323Z,1.80
2023-04-04T03:30:38.939Z,2.00
2023-04-04T03:33:10.027Z,2.13
2023-04-04T03:35:40.728Z,1.77
2023-04-04T03:38:08.808Z,1.83
2023-04-04T03:40:36.562Z,2.10
2023-04-04T03:43:03.675Z,1.90
2023-04-04T03:45:30.845Z,1.90
2023-04-04T03:47:58.016Z,2.60
2023-04-04T03:50:25.482Z,1.90
2023-04-04T03:52:52.774Z,1.93
2023-04-04T03:55:20.081Z,2.17
2023-04-04T03:57:47.783Z,2.57
2023-04-04T04:00:15.102Z,2.30
2023-04-04T04:02:42.346Z,2.57
2023-04-04T04:05:09.765Z,2.23
2023-04-04T04:07:36.893Z,2.60
2023-04-04T04:10:05.283Z,2.10
2023-04-04T04:12:32.546Z,2.13
2023-04-04T04:14:59.690Z,2.27
2023-04-04T04:17:27.154Z,2.30
2023-04-04T04:19:54.309Z,2.07
2023-04-04T04:22:21.528Z,1.73
2023-04-04T04:24:48.681Z,2.40
2023-04-04T04:27:15.901Z,1.73
2023-04-04T04:29:43.075Z,1.90
2023-04-04T04:32:10.710Z,1.70
2023-04-04T04:34:37.838Z,2.30
2023-04-04T04:37:05.000Z,2.10
2023-04-04T04:39:32.253Z,2.77
2023-04-04T04:41:59.377Z,2.20
2023-04-04T04:44:27.020Z,2.40
2023-04-04T04:46:54.210Z,2.30
2023-04-04T04:49:21.499Z,2.40
2023-04-04T04:51:49.170Z,2.60
2023-04-04T04:54:16.342Z,5.40
2023-04-04T04:56:43.477Z,2.43
2023-04-04T04:59:11.483Z,2.50
2023-04-04T05:01:39.140Z,2.60
2023-04-04T05:04:06.396Z,2.60
2023-04-04T05:06:33.523Z,2.80
2023-04-04T05:09:00.736Z,2.73
2023-04-04T05:11:27.920Z,2.70
2023-04-04T05:13:55.098Z,2.70
2023-04-04T05:16:22.305Z,2.67
2023-04-04T05:18:50.065Z,2.97
2023-04-04T05:21:17.351Z,2.47
2023-04-04T05:23:45.330Z,2.80
2023-04-04T05:26:13.013Z,3.03
2023-04-04T05:28:41.059Z,2.70
2023-04-04T05:31:08.320Z,2.30
2023-04-04T05:33:35.555Z,2.60
2023-04-04T05:36:03.101Z,2.73
2023-04-04T05:38:31.385Z,2.70
2023-04-04T05:40:58.540Z,2.80
2023-04-04T05:43:25.709Z,2.50
2023-04-04T05:45:52.912Z,2.60
2023-04-04T05:48:20.086Z,2.60
2023-04-04T05:50:47.357Z,2.77
2023-04-04T05:53:15.159Z,2.60
2023-04-04T05:55:42.304Z,2.70
2023-04-04T05:58:10.809Z,2.67
2023-04-04T06:00:39.305Z,4.70
2023-04-04T06:03:06.770Z,2.80
2023-04-04T06:05:34.011Z,2.90
2023-04-04T06:08:01.196Z,2.80
2023-04-04T06:10:28.314Z,2.70
2023-04-04T06:12:55.457Z,2.77
2023-04-04T06:15:22.777Z,2.90
2023-04-04T06:17:49.971Z,2.43
2023-04-04T06:20:19.098Z,2.70
2023-04-04T06:22:46.588Z,2.67
2023-04-04T06:25:14.721Z,2.60
2023-04-04T06:27:42.489Z,3.13
2023-04-04T06:30:11.844Z,2.70
2023-04-04T06:32:39.966Z,2.67
2023-04-04T06:35:07.430Z,2.80
2023-04-04T06:37:34.590Z,2.67
2023-04-04T06:40:01.965Z,2.60
2023-04-04T06:42:29.079Z,2.80
2023-04-04T06:44:56.245Z,2.40
2023-04-04T06:47:23.490Z,2.70
2023-04-04T06:49:50.700Z,2.43
2023-04-04T06:52:17.820Z,2.90
2023-04-04T06:54:45.816Z,3.23
2023-04-04T06:57:12.994Z,2.87
2023-04-04T06:59:40.166Z,3.00
2023-04-04T07:02:07.438Z,2.80
2023-04-04T07:04:35.284Z,2.60
2023-04-04T07:07:02.725Z,3.00
2023-04-04T07:09:29.998Z,2.90
2023-04-04T07:11:57.264Z,2.90
2023-04-04T07:14:25.447Z,2.87
2023-04-04T07:16:53.430Z,2.83
2023-04-04T07:19:20.782Z,2.97
2023-04-04T07:21:47.904Z,2.70
2023-04-04T07:24:15.032Z,2.90
2023-04-04T07:26:42.180Z,2.67
2023-04-04T07:29:09.551Z,2.80
2023-04-04T07:31:36.745Z,2.57
2023-04-04T07:34:04.139Z,2.40
2023-04-04T07:36:31.530Z,2.50
2023-04-04T07:38:59.051Z,2.60
2023-04-04T07:41:26.237Z,2.50
2023-04-04T07:43:53.384Z,2.30
2023-04-04T07:46:20.787Z,2.47
2023-04-04T07:48:48.026Z,2.40
2023-04-04T07:51:15.778Z,2.93
2023-04-04T07:53:42.907Z,2.93
2023-04-04T07:56:10.285Z,2.47
2023-04-04T07:58:37.426Z,2.50
2023-04-04T08:01:04.591Z,2.40
2023-04-04T08:03:31.868Z,2.63
2023-04-04T08:05:59.247Z,2.60
2023-04-04T08:08:27.150Z,2.50
2023-04-04T08:10:54.286Z,2.60
2023-04-04T08:13:21.393Z,2.40
2023-04-04T08:15:48.589Z,2.40
2023-04-04T08:18:15.864Z,2.40
2023-04-04T08:20:43.220Z,2.60
2023-04-04T08:23:10.710Z,2.60
2023-04-04T08:25:38.081Z,2.30
2023-04-04T08:28:05.731Z,2.60
2023-04-04T08:30:32.975Z,2.47
2023-04-04T08:33:00.496Z,2.90
2023-04-04T08:35:27.757Z,2.20
2023-04-04T08:37:55.006Z,2.47
2023-04-04T08:40:22.260Z,2.53
2023-04-04T08:42:51.562Z,2.87
2023-04-04T08:45:19.803Z,2.30
2023-04-04T08:47:48.281Z,2.63
2023-04-04T08:50:15.719Z,2.60
2023-04-04T08:52:43.479Z,2.53
2023-04-04T08:55:11.126Z,2.47
2023-04-04T08:57:38.596Z,2.83
2023-04-04T09:00:07.538Z,2.77
2023-04-04T09:02:37.674Z,2.87
2023-04-04T09:05:07.138Z,2.50
2023-04-04T09:07:36.403Z,2.63
2023-04-04T09:10:05.424Z,2.63
2023-04-04T09:12:33.911Z,3.93
2023-04-04T09:15:01.441Z,2.63
2023-04-04T09:17:28.619Z,2.70
2023-04-04T09:19:57.091Z,2.33
2023-04-04T09:22:24.207Z,2.10
2023-04-04T09:24:52.517Z,2.40
2023-04-04T09:27:19.646Z,2.30
2023-04-04T09:29:47.475Z,2.10
2023-04-04T09:32:16.028Z,2.40
2023-04-04T09:34:46.769Z,2.27
2023-04-04T09:37:15.521Z,2.50
2023-04-04T09:39:43.596Z,2.10
2023-04-04T09:42:11.197Z,3.00
2023-04-04T09:44:38.401Z,2.00
2023-04-04T09:47:30.522Z,2.23
2023-04-04T09:49:59.775Z,2.13
2023-04-04T09:52:27.329Z,2.00
2023-04-04T09:55:00.888Z,2.07
2023-04-04T09:57:32.253Z,2.20
2023-04-04T10:00:00.896Z,2.23
2023-04-04T10:02:31.178Z,2.10
2023-04-04T10:05:06.163Z,2.50
2023-04-04T10:07:34.642Z,2.63
2023-04-04T10:10:02.386Z,2.30
2023-04-04T10:12:31.136Z,2.30
2023-04-04T10:14:58.849Z,2.30
2023-04-04T10:17:30.582Z,2.20
2023-04-04T10:20:01.642Z,2.10
2023-04-04T10:22:29.616Z,2.20
2023-04-04T10:24:58.951Z,2.00
2023-04-04T10:27:27.366Z,1.97
2023-04-04T10:29:54.592Z,2.20
2023-04-04T10:32:30.126Z,2.27
2023-04-04T10:35:11.585Z,2.00
2023-04-04T10:37:51.589Z,2.13
2023-04-04T10:40:19.826Z,2.00
2023-04-04T10:42:47.765Z,1.87
2023-04-04T10:45:21.183Z,1.90
2023-04-04T10:47:49.114Z,1.90
2023-04-04T10:50:16.322Z,2.10
2023-04-04T10:52:45.029Z,1.70
2023-04-04T10:55:14.214Z,1.70
2023-04-04T10:57:42.419Z,1.60
2023-04-04T11:00:18.709Z,1.50
2023-04-04T11:02:46.997Z,1.60
2023-04-04T11:05:20.766Z,1.67
2023-04-04T11:08:04.236Z,1.60
2023-04-04T11:10:36.750Z,1.43
2023-04-04T11:13:13.187Z,1.50
2023-04-04T11:15:50.819Z,1.70
2023-04-04T11:18:32.053Z,1.90
2023-04-04T11:21:05.521Z,1.80
2023-04-04T11:23:51.218Z,1.73
2023-04-04T11:26:30.454Z,1.40
2023-04-04T11:28:58.615Z,2.08
2023-04-04T11:31:30.158Z,1.90
2023-04-04T11:34:03.590Z,1.70
2023-04-04T11:36:36.856Z,1.80
2023-04-04T11:39:05.396Z,1.55
2023-04-04T11:41:54.373Z,1.38
2023-04-04T11:44:25.222Z,1.60
2023-04-04T11:47:11.804Z,1.70
2023-04-04T11:49:40.862Z,1.52
2023-04-04T11:52:11.812Z,1.30
2023-04-04T11:54:39.753Z,1.40
2023-04-04T11:57:07.444Z,1.40
2023-04-04T11:59:34.906Z,1.70
2023-04-04T12:02:03.408Z,1.40
2023-04-04T12:04:30.518Z,1.33
2023-04-04T12:06:57.850Z,1.50
2023-04-04T12:09:26.776Z,1.45
2023-04-04T12:11:55.320Z,1.70
2023-04-04T12:14:23.373Z,1.70
2023-04-04T12:16:52.332Z,1.25
2023-04-04T12:19:19.494Z,1.45
2023-04-04T12:21:47.058Z,1.48
2023-04-04T12:24:14.795Z,1.60
2023-04-04T12:26:43.040Z,1.40
2023-04-04T12:29:10.866Z,1.50
2023-04-04T12:31:39.201Z,1.27
2023-04-04T12:34:06.465Z,1.20
2023-04-04T12:36:33.634Z,1.15
2023-04-04T12:39:08.876Z,1.30
2023-04-04T12:41:36.833Z,1.33
2023-04-04T12:44:04.729Z,1.20
2023-04-04T12:46:39.697Z,1.27
2023-04-04T12:49:08.290Z,1.10
2023-04-04T12:51:36.473Z,1.17
2023-04-04T12:54:05.101Z,2.10
2023-04-04T12:56:32.403Z,1.20
2023-04-04T12:59:05.956Z,1.40
2023-04-04T13:01:33.374Z,1.38
2023-04-04T13:04:07.075Z,1.02
2023-04-04T13:06:34.267Z,1.30
2023-04-04T13:09:01.454Z,1.20
2023-04-04T13:11:48.882Z,1.30
2023-04-04T13:14:16.031Z,1.48
2023-04-04T13:16:43.238Z,1.40
2023-04-04T13:19:10.394Z,1.10
2023-04-04T13:21:40.930Z,1.17
2023-04-04T13:24:08.156Z,1.13
2023-04-04T13:26:35.964Z,1.20
2023-04-04T13:29:03.128Z,1.13
2023-04-04T13:31:30.320Z,1.27
2023-04-04T13:33:57.670Z,1.02
2023-04-04T13:36:24.888Z,1.20
2023-04-04T13:38:52.083Z,1.17
2023-04-04T13:41:19.230Z,1.27
2023-04-04T13:43:46.361Z,1.20
2023-04-04T13:46:13.534Z,1.27
2023-04-04T13:48:40.686Z,1.40
2023-04-04T13:51:07.834Z,1.23
2023-04-04T13:53:34.984Z,2.13
2023-04-04T13:56:17.720Z,2.13
2023-04-04T13:58:45.829Z,2.50
2023-04-04T14:01:13.500Z,2.40
2023-04-04T14:03:41.049Z,2.20
2023-04-04T14:06:10.743Z,2.50
2023-04-04T14:08:38.401Z,2.53
2023-04-04T14:11:05.773Z,2.10
2023-04-04T14:13:33.241Z,2.33
2023-04-04T14:16:00.838Z,2.13
2023-04-04T14:18:28.031Z,2.37
2023-04-04T14:20:55.339Z,2.50
2023-04-04T14:23:22.493Z,2.70
2023-04-04T14:25:52.611Z,2.57
2023-04-04T14:28:19.854Z,2.67
2023-04-04T14:30:46.985Z,2.60
2023-04-04T14:33:14.274Z,2.70
2023-04-04T14:35:41.667Z,2.27
2023-04-04T14:38:09.131Z,2.60
2023-04-04T14:40:36.556Z,2.30
2023-04-04T14:43:03.722Z,2.40
2023-04-04T14:45:32.195Z,2.67
2023-04-04T14:47:59.392Z,2.50
2023-04-04T14:50:26.635Z,2.30
2023-04-04T14:52:56.385Z,2.30
2023-04-04T14:55:23.668Z,2.13
2023-04-04T14:58:01.775Z,2.20
2023-04-04T15:00:29.523Z,2.03
2023-04-04T15:02:56.915Z,2.47
2023-04-04T15:05:25.292Z,2.00
2023-04-04T15:07:52.490Z,2.20
2023-04-04T15:10:19.693Z,2.30
2023-04-04T15:12:46.822Z,2.40
2023-04-04T15:15:13.958Z,2.30
2023-04-04T15:17:41.778Z,2.33
2023-04-04T15:20:09.486Z,2.37
2023-04-04T15:22:38.512Z,2.03
2023-04-04T15:25:06.205Z,2.70
2023-04-04T15:27:33.575Z,2.27
2023-04-04T15:30:00.856Z,2.37
2023-04-04T15:32:28.128Z,2.30
2023-04-04T15:34:58.513Z,2.30
2023-04-04T15:37:26.540Z,2.20
2023-04-04T15:39:54.506Z,2.37
2023-04-04T15:42:22.012Z,2.43
2023-04-04T15:44:49.146Z,2.43
2023-04-04T15:47:19.069Z,2.27
2023-04-04T15:49:46.327Z,2.37
2023-04-04T15:52:13.553Z,2.67
2023-04-04T15:54:40.748Z,2.00
2023-04-04T15:57:08.164Z,2.27
2023-04-04T15:59:35.437Z,2.10
2023-04-04T16:02:05.158Z,2.40
2023-04-04T16:04:32.317Z,2.10
2023-04-04T16:06:59.740Z,1.63
2023-04-04T16:09:26.853Z,1.20
2023-04-04T16:11:55.967Z,1.30
2023-04-04T16:14:23.574Z,1.20
2023-04-04T16:16:50.838Z,1.20
2023-04-04T16:19:18.000Z,1.13
2023-04-04T16:21:45.437Z,1.37
2023-04-04T16:24:14.198Z,1.40
2023-04-04T16:26:47.139Z,1.10
2023-04-04T16:29:14.845Z,1.50
2023-04-04T16:31:42.584Z,1.13
2023-04-04T16:34:09.866Z,1.50
2023-04-04T16:36:37.172Z,1.20
2023-04-04T16:39:04.411Z,1.07
2023-04-04T16:41:31.624Z,1.30
2023-04-04T16:43:59.666Z,1.20
2023-04-04T16:46:27.505Z,1.20
2023-04-04T16:48:55.350Z,1.37
2023-04-04T16:51:22.490Z,1.50
2023-04-04T16:53:49.650Z,1.50
2023-04-04T16:56:16.930Z,1.60
2023-04-04T16:58:45.135Z,1.40
2023-04-04T17:01:16.665Z,1.70
2023-04-04T17:03:43.943Z,1.20
2023-04-04T17:06:11.375Z,1.30
2023-04-04T17:08:38.686Z,1.30
2023-04-04T17:11:05.872Z,1.50
2023-04-04T17:13:33.016Z,1.27
2023-04-04T17:16:00.219Z,1.40
2023-04-04T17:18:27.459Z,1.10
2023-04-04T17:20:54.604Z,1.40
2023-04-04T17:23:21.759Z,1.33
2023-04-04T17:25:49.018Z,1.40
2023-04-04T17:28:16.451Z,1.20
2023-04-04T17:30:43.629Z,1.30
2023-04-04T17:33:10.871Z,1.17
2023-04-04T17:35:38.085Z,1.30
2023-04-04T17:38:05.269Z,2.00
2023-04-04T17:40:32.426Z,1.27
2023-04-04T17:42:59.628Z,1.40
2023-04-04T17:45:27.529Z,1.20
2023-04-04T17:47:54.677Z,1.13
2023-04-04T17:50:21.926Z,1.20
2023-04-04T17:52:49.066Z,1.40
2023-04-04T17:55:17.900Z,1.20
2023-04-04T17:57:45.352Z,1.00
2023-04-04T18:00:13.493Z,1.20
2023-04-04T18:02:40.751Z,1.30
2023-04-04T18:05:09.021Z,1.30
2023-04-04T18:07:36.219Z,1.10
2023-04-04T18:10:03.447Z,1.33
2023-04-04T18:12:30.757Z,1.20
2023-04-04T18:14:58.124Z,1.10
2023-04-04T18:17:25.779Z,1.20
2023-04-04T18:19:54.711Z,1.20
2023-04-04T18:22:22.656Z,1.40
2023-04-04T18:24:49.892Z,1.20
2023-04-04T18:27:17.097Z,1.13
2023-04-04T18:29:44.385Z,2.20
2023-04-04T18:32:11.590Z,1.20
2023-04-04T18:34:38.884Z,1.50
2023-04-04T18:37:06.418Z,1.10
2023-04-04T18:39:33.670Z,1.20
2023-04-04T18:42:02.973Z,1.23
2023-04-04T18:44:32.461Z,1.30
2023-04-04T18:47:04.099Z,1.20
2023-04-04T18:49:31.702Z,1.50
2023-04-04T18:51:58.864Z,1.43
2023-04-04T18:54:27.156Z,1.50
2023-04-04T18:56:56.713Z,1.33
2023-04-04T18:59:24.562Z,1.50
2023-04-04T19:01:56.470Z,1.33
2023-04-04T19:04:23.927Z,1.40
2023-04-04T19:06:52.138Z,1.50
2023-04-04T19:09:20.651Z,1.47
2023-04-04T19:11:48.207Z,1.67
2023-04-04T19:14:15.716Z,1.40
2023-04-04T19:16:43.027Z,1.60
2023-04-04T19:19:10.259Z,1.60
2023-04-04T19:21:37.695Z,1.53
2023-04-04T19:24:04.998Z,1.60
2023-04-04T19:26:32.629Z,1.57
2023-04-04T19:29:00.108Z,1.70
2023-04-04T19:31:29.856Z,1.60
2023-04-04T19:33:57.374Z,1.77
2023-04-04T19:36:24.948Z,1.30
2023-04-04T19:38:54.686Z,1.60
2023-04-04T19:41:38.711Z,1.57
2023-04-04T19:44:07.532Z,1.50
2023-04-04T19:46:35.329Z,1.40
2023-04-04T19:49:04.601Z,1.57
2023-04-04T19:51:37.157Z,1.43
2023-04-04T19:54:06.294Z,1.60
2023-04-04T19:56:33.655Z,1.30
2023-04-04T19:59:03.513Z,1.30
2023-04-04T20:01:32.488Z,1.43
2023-04-04T20:04:09.836Z,1.60
2023-04-04T20:06:38.946Z,1.50
2023-04-04T20:09:26.326Z,1.60
2023-04-04T20:11:53.791Z,1.57
2023-04-04T20:14:22.259Z,1.60
2023-04-04T20:16:49.819Z,1.30
2023-04-04T20:19:19.593Z,1.40
2023-04-04T20:21:48.492Z,1.43
2023-04-04T20:24:17.705Z,1.37
2023-04-04T20:26:51.533Z,1.50
2023-04-04T20:29:21.808Z,1.60
2023-04-04T20:31:49.027Z,1.70
2023-04-04T20:34:36.335Z,1.40
2023-04-04T20:37:05.076Z,1.33
2023-04-04T20:39:35.432Z,1.60
2023-04-04T20:42:02.982Z,1.57
2023-04-04T20:44:30.414Z,1.50
2023-04-04T20:46:57.939Z,1.50
2023-04-04T20:49:25.533Z,1.43
2023-04-04T20:51:52.687Z,1.60
2023-04-04T20:54:19.819Z,2.00
2023-04-04T20:56:51.578Z,1.43
2023-04-04T20:59:28.046Z,1.53
2023-04-04T21:01:55.970Z,1.63
2023-04-04T21:04:25.878Z,1.50
2023-04-04T21:06:53.655Z,1.60
2023-04-04T21:09:21.133Z,1.80
2023-04-04T21:11:48.429Z,2.30
2023-04-04T21:14:25.404Z,1.83
2023-04-04T21:16:52.549Z,1.80
2023-04-04T21:19:22.765Z,1.70
2023-04-04T21:21:50.631Z,1.60
2023-04-04T21:24:17.820Z,1.60
2023-04-04T21:26:45.036Z,1.70
2023-04-04T21:29:22.477Z,2.00
2023-04-04T21:31:50.867Z,1.73
2023-04-04T21:34:19.913Z,1.47
2023-04-04T21:36:47.656Z,1.70
2023-04-04T21:39:23.809Z,1.90
2023-04-04T21:41:52.923Z,1.73
2023-04-04T21:44:20.185Z,1.60
2023-04-04T21:46:47.527Z,1.90
2023-04-04T21:49:14.788Z,1.80
2023-04-04T21:51:42.575Z,1.53
2023-04-04T21:54:09.972Z,1.73
2023-04-04T21:56:38.285Z,2.30
2023-04-04T21:59:08.325Z,1.93
2023-04-04T22:01:36.308Z,1.90
2023-04-04T22:04:03.564Z,1.70
2023-04-04T22:06:31.156Z,1.67
2023-04-04T22:08:59.870Z,1.90
2023-04-04T22:11:27.618Z,1.90
2023-04-04T22:14:17.493Z,1.87
2023-04-04T22:16:45.236Z,1.80
2023-04-04T22:19:12.466Z,1.93
2023-04-04T22:21:46.732Z,2.03
2023-04-04T22:24:15.563Z,2.03
2023-04-04T22:26:42.788Z,2.10
2023-04-04T22:29:10.038Z,1.80
2023-04-04T22:31:37.851Z,1.97
2023-04-04T22:34:06.238Z,2.37
2023-04-04T22:36:34.512Z,1.90
2023-04-04T22:39:02.030Z,1.90
2023-04-04T22:41:30.161Z,1.60
2023-04-04T22:43:57.980Z,1.70
2023-04-04T22:46:26.084Z,1.70
2023-04-04T22:49:04.829Z,1.73
2023-04-04T22:51:43.930Z,1.70
2023-04-04T22:54:13.205Z,1.60
2023-04-04T22:56:40.660Z,1.87
2023-04-04T22:59:08.197Z,1.60
2023-04-04T23:01:35.405Z,1.40
2023-04-04T23:04:02.601Z,1.60
2023-04-04T23:06:29.840Z,1.60
2023-04-04T23:08:56.946Z,1.40
2023-04-04T23:11:24.091Z,1.67
2023-04-04T23:13:51.976Z,1.53
2023-04-04T23:16:23.425Z,1.33
2023-04-04T23:18:51.419Z,1.30
2023-04-04T23:21:18.725Z,1.30
2023-04-04T23:23:46.128Z,1.30
2023-04-04T23:26:13.564Z,1.57
2023-04-04T23:28:40.706Z,1.30
2023-04-04T23:31:07.919Z,1.37
2023-04-04T23:33:35.220Z,1.40
2023-04-04T23:36:02.415Z,1.40
2023-04-04T23:38:29.568Z,1.30
2023-04-04T23:40:56.724Z,1.50
2023-04-04T23:43:23.988Z,1.43
2023-04-04T23:45:52.210Z,1.50
2023-04-04T23:48:19.615Z,1.40
2023-04-04T23:50:46.813Z,1.23
2023-04-04T23:53:14.172Z,1.20
2023-04-04T23:55:41.308Z,1.17
2023-04-04T23:58:08.449Z,1.43
